Ada, South Dakota
Current Conditions -  °F | °C
As of 5:53 AM on Saturday 25 Oct 2014 (Local Time) from KHEI Reporting Station
Clear Clear  
Wind Chill: 34°   Ceiling: Unl
Heat Index: 34°   Visibility: 10mi
Dew Point: 29°   Wind: 0mph
Humidity: 82%   Direction: NA
Pressure: 30.15"   Gusts: NA
Location:  45.5161°N, 102.519°W
Report Text: KHEI 251153Z AUTO 00000KT 10SM CLR 01/M02 A3015 RMK AO2 SLP222 T00111017 10089 20000 53003
Loading
Personal Weather Stations






























Interactive Weather Map
Tropical Storm Tracking
New forecast layout! Learn more

10-Day Weather Forecast

Advertisements
Track Severe Weather on mobile